Список аэропортов
Фактическая погода:

Нет данных
Время (МСК)Темп. СВетерВлажностьДавлениеОблачностьОсадки
21:00+18СЗ, 2 м/с60%1016 гПаясно
22:00+17С, 2 м/с65%1017 гПаясно
23:00+16С, 2 м/с70%1017 гПаясно
25 июня
00:00+14СВ, 1 м/с76%1017 гПаясно
01:00+14В, 1 м/с78%1017 гПаясно
02:00+13В, 2 м/с78%1017 гПаясно
03:00+13В, 2 м/с80%1017 гПаясно
04:00+12В, 2 м/с83%1017 гПаясно
05:00+12В, 2 м/с84%1017 гПаясно
06:00+12В, 2 м/с83%1017 гПаясно
07:00+15В, 2 м/с78%1017 гПамалооблачно
08:00+18СВ, 2 м/с64%1017 гПаясно
09:00+21С, 3 м/с55%1016 гПамалооблачно
10:00+23СВ, 5 м/с54%1016 гПамалооблачно
11:00+24СВ, 5 м/с50%1016 гПамалооблачно
12:00+25СВ, 5 м/с47%1016 гПаясно
13:00+26СВ, 4 м/с44%1016 гПаясно
14:00+26С, 4 м/с42%1015 гПаясно
15:00+27С, 5 м/с40%1015 гПаясно
16:00+27С, 5 м/с38%1015 гПамалооблачно
17:00+26С, 5 м/с36%1015 гПаоблачно
18:00+26С, 5 м/с36%1015 гПаоблачно
19:00+25С, 5 м/с33%1014 гПаоблачно
20:00+24С, 4 м/с38%1015 гПас прояснениями
21:00+21С, 3 м/с47%1015 гПаясно
22:00+19СВ, 2 м/с62%1015 гПаясно
23:00+18СВ, 2 м/с73%1015 гПамалооблачно
26 июня
00:00+17СВ, 2 м/с78%1015 гПаоблачно
01:00+17СВ, 2 м/с80%1015 гПаоблачно
02:00+17СВ, 3 м/с77%1014 гПаоблачно
03:00+17СВ, 3 м/с75%1014 гПаоблачно
04:00+16СВ, 3 м/с75%1014 гПаоблачно
05:00+16СВ, 3 м/с78%1014 гПаоблачно
06:00+16СВ, 3 м/с80%1013 гПаоблачно
07:00+19СВ, 4 м/с74%1013 гПаясно
08:00+21С, 5 м/с66%1012 гПамалооблачно
09:00+22С, 6 м/с63%1012 гПаоблачно
10:00+24С, 5 м/с54%1012 гПас прояснениями
11:00+25С, 6 м/с52%1011 гПаоблачнодождь
12:00+28С, 7 м/с43%1011 гПаоблачно
13:00+29С, 7 м/с40%1010 гПаоблачно
14:00+30С, 8 м/с38%1009 гПамалооблачно
15:00+30С, 9 м/с37%1009 гПаясно
16:00+30С, 8 м/с38%1008 гПаоблачно
17:00+29С, 8 м/с42%1008 гПамалооблачно
18:00+28СВ, 8 м/с46%1008 гПамалооблачно
19:00+27СВ, 7 м/с48%1008 гПамалооблачно
20:00+26СВ, 6 м/с50%1008 гПамалооблачно
21:00+25СВ, 4 м/с57%1009 гПаясно